Time;durP1;ratioP1;P1;durP2;ratioP2;P2;SDS_P1;SDS_P2;PMS_P1;PMS_P2;Temp;Humidity;BMP_temperature;BMP_pressure;BME280_temperature;BME280_humidity;BME280_pressure;Samples;Min_cycle;Max_cycle;Signal;HPM_P1;HPM_P2
2022/11/03 00:02:24;;;;;;;;;;;6.60;99.90;;;;;;1965645;72;20152;-75
2022/11/03 00:04:50;;;;;;;;;;;6.60;99.90;;;;;;1965460;73;20145;-75
2022/11/03 00:07:20;;;;;;;;;;;6.60;99.90;;;;;;1951584;72;20158;-75
2022/11/03 00:09:47;;;;;;;;;;;6.60;99.90;;;;;;1960606;72;20114;-75
2022/11/03 00:12:14;;;;;;;;;;;6.60;99.90;;;;;;1966002;72;20106;-77
2022/11/03 00:14:41;;;;;;;;;;;6.60;99.90;;;;;;1965169;72;20114;-74
2022/11/03 00:17:07;;;;;;;;;;;6.60;99.90;;;;;;1952533;73;20106;-76
2022/11/03 00:19:34;;;;;;;;;;;6.60;99.90;;;;;;1961779;72;20105;-76
2022/11/03 00:22:01;;;;;;;;;;;6.60;99.90;;;;;;1963665;72;20168;-76
2022/11/03 00:24:27;;;;;;;;;;;6.50;99.90;;;;;;1960185;72;20170;-76
2022/11/03 00:26:54;;;;;;;;;;;6.50;99.90;;;;;;1946872;73;20225;-76
2022/11/03 00:29:21;;;;;;;;;;;6.40;99.90;;;;;;1958649;72;20111;-76
2022/11/03 00:31:47;;;;;;;;;;;6.30;99.90;;;;;;1958438;72;20110;-75
2022/11/03 00:34:14;;;;;;;;;;;6.30;99.90;;;;;;1970399;72;20144;-76
2022/11/03 00:36:41;;;;;;;;;;;6.20;99.90;;;;;;1965283;73;20169;-76
2022/11/03 00:39:08;;;;;;;;;;;6.30;99.90;;;;;;1965534;72;20122;-76
2022/11/03 00:41:35;;;;;;;;;;;6.30;99.90;;;;;;1965449;73;20141;-75
2022/11/03 00:44:02;;;;;;;;;;;6.30;99.90;;;;;;1965396;73;20372;-75
2022/11/03 00:46:34;;;;;;;;;;;6.30;99.90;;;;;;1965507;73;20110;-76
2022/11/03 00:48:57;;;;;;;;;;;6.30;99.90;;;;;;1964149;73;20193;-75
2022/11/03 00:51:24;;;;;;;;;;;6.20;99.90;;;;;;1965492;73;20144;-75
2022/11/03 00:53:55;;;;;;;;;;;6.20;99.90;;;;;;1965423;73;20144;-76
2022/11/03 00:56:22;;;;;;;;;;;6.20;99.90;;;;;;1965315;73;20200;-74
2022/11/03 00:58:49;;;;;;;;;;;6.20;99.90;;;;;;1965389;73;20142;-76
2022/11/03 01:01:17;;;;;;;;;;;6.10;99.90;;;;;;1965445;73;20110;-75
2022/11/03 01:09:14;;;;;;;;;;;6.00;99.90;;;;;;1930142;73;20124;-75
2022/11/03 01:11:43;;;;;;;;;;;6.00;99.90;;;;;;1952079;72;20213;-75
2022/11/03 01:14:10;;;;;;;;;;;6.00;99.90;;;;;;1951775;72;20364;-75
2022/11/03 01:16:37;;;;;;;;;;;6.00;99.90;;;;;;1970206;72;20321;-75
2022/11/03 01:19:04;;;;;;;;;;;6.00;99.90;;;;;;1961791;72;20122;-75
2022/11/03 01:21:30;;;;;;;;;;;5.90;99.90;;;;;;1965595;72;20345;-76
2022/11/03 01:24:00;;;;;;;;;;;5.90;99.90;;;;;;1958625;72;20176;-76
2022/11/03 01:26:27;;;;;;;;;;;5.90;99.90;;;;;;1947277;72;20122;-75
2022/11/03 01:28:53;;;;;;;;;;;5.80;99.90;;;;;;1964269;72;20323;-75
2022/11/03 01:31:21;;;;;;;;;;;5.80;99.90;;;;;;1962365;72;20107;-75
2022/11/03 01:33:49;;;;;;;;;;;5.80;99.90;;;;;;1957409;72;20116;-75
2022/11/03 01:36:15;;;;;;;;;;;5.80;99.90;;;;;;1956780;72;20143;-74
2022/11/03 01:38:42;;;;;;;;;;;5.80;99.90;;;;;;1960402;72;20345;-76
2022/11/03 01:41:10;;;;;;;;;;;5.80;99.90;;;;;;1959825;72;20124;-75
2022/11/03 01:43:37;;;;;;;;;;;5.70;99.90;;;;;;1952172;72;20148;-77
2022/11/03 01:46:12;;;;;;;;;;;5.70;99.90;;;;;;1963394;72;20117;-75
2022/11/03 01:48:40;;;;;;;;;;;5.70;99.90;;;;;;1936168;73;20371;-73
2022/11/03 01:51:06;;;;;;;;;;;5.60;99.90;;;;;;1936249;73;20114;-76
2022/11/03 01:53:33;;;;;;;;;;;5.60;99.90;;;;;;1960160;72;20102;-76
2022/11/03 01:56:00;;;;;;;;;;;5.60;99.90;;;;;;1948892;72;20121;-75
2022/11/03 01:58:27;;;;;;;;;;;5.60;99.90;;;;;;1963588;72;20122;-76
2022/11/03 02:00:55;;;;;;;;;;;5.50;99.90;;;;;;1969298;72;20168;-76
2022/11/03 02:03:22;;;;;;;;;;;5.50;99.90;;;;;;1954644;72;20401;-76
2022/11/03 02:05:48;;;;;;;;;;;5.60;99.90;;;;;;1939022;73;20124;-76
2022/11/03 02:08:20;;;;;;;;;;;5.50;99.90;;;;;;1966752;72;20118;-76
2022/11/03 02:10:47;;;;;;;;;;;5.50;99.90;;;;;;1945969;72;20118;-74
2022/11/03 02:13:26;;;;;;;;;;;5.50;99.90;;;;;;1960089;72;20106;-75
2022/11/03 02:15:53;;;;;;;;;;;5.40;99.90;;;;;;1965869;72;20103;-75
2022/11/03 02:18:21;;;;;;;;;;;5.40;99.90;;;;;;1965115;72;20172;-74
2022/11/03 02:20:49;;;;;;;;;;;5.40;99.90;;;;;;1946611;72;20186;-74
2022/11/03 02:23:34;;;;;;;;;;;5.30;99.90;;;;;;1951645;72;20111;-75
2022/11/03 02:26:01;;;;;;;;;;;5.30;99.90;;;;;;1972628;72;20103;-75
2022/11/03 02:28:29;;;;;;;;;;;5.30;99.90;;;;;;1970309;72;20118;-75
2022/11/03 02:31:09;;;;;;;;;;;5.30;99.90;;;;;;1960940;72;20124;-74
2022/11/03 02:33:37;;;;;;;;;;;5.30;99.90;;;;;;1944822;72;20153;-74
2022/11/03 02:36:11;;;;;;;;;;;5.20;99.90;;;;;;1963467;72;20118;-75
2022/11/03 02:38:38;;;;;;;;;;;5.20;99.90;;;;;;1961764;72;20145;-75
2022/11/03 02:41:06;;;;;;;;;;;5.20;99.90;;;;;;1966880;72;20118;-75
2022/11/03 02:43:33;;;;;;;;;;;5.10;99.90;;;;;;1969535;72;20118;-74
2022/11/03 02:45:59;;;;;;;;;;;5.10;99.90;;;;;;1966438;72;20318;-76
2022/11/03 02:48:26;;;;;;;;;;;5.10;99.90;;;;;;1956958;72;20156;-76
2022/11/03 02:50:53;;;;;;;;;;;5.10;99.90;;;;;;1967485;72;20360;-76
2022/11/03 02:53:20;;;;;;;;;;;5.10;99.90;;;;;;1963644;72;20196;-73
2022/11/03 02:55:55;;;;;;;;;;;5.00;99.90;;;;;;1969521;72;20115;-75
2022/11/03 02:58:23;;;;;;;;;;;5.10;99.90;;;;;;1956043;72;20124;-75
2022/11/03 03:00:51;;;;;;;;;;;5.00;99.90;;;;;;1939013;73;20375;-75
2022/11/03 03:03:26;;;;;;;;;;;5.00;99.90;;;;;;1973384;73;20148;-75
2022/11/03 03:05:53;;;;;;;;;;;5.00;99.90;;;;;;1969098;72;20118;-75
2022/11/03 03:08:20;;;;;;;;;;;5.00;99.90;;;;;;1957761;72;20122;-74
2022/11/03 03:10:47;;;;;;;;;;;5.00;99.90;;;;;;1963628;72;20110;-73
2022/11/03 03:13:14;;;;;;;;;;;5.00;99.90;;;;;;1965883;72;20126;-74
2022/11/03 03:15:47;;;;;;;;;;;5.00;99.90;;;;;;1948901;72;20106;-75
2022/11/03 03:18:21;;;;;;;;;;;4.90;99.90;;;;;;1948583;72;20114;-74
2022/11/03 03:20:50;;;;;;;;;;;4.90;99.90;;;;;;1953202;73;20145;-75
2022/11/03 03:23:20;;;;;;;;;;;4.90;99.90;;;;;;1963508;72;20334;-75
2022/11/03 03:25:48;;;;;;;;;;;4.90;99.90;;;;;;1958629;73;20152;-75
2022/11/03 03:28:16;;;;;;;;;;;4.80;99.90;;;;;;1950530;72;20180;-74
2022/11/03 03:30:43;;;;;;;;;;;4.80;99.90;;;;;;1968499;72;20107;-75
2022/11/03 03:33:10;;;;;;;;;;;4.90;99.90;;;;;;1963466;72;20154;-76
2022/11/03 03:35:37;;;;;;;;;;;4.90;99.90;;;;;;1966717;72;20176;-76
2022/11/03 03:38:05;;;;;;;;;;;4.80;99.90;;;;;;1963507;72;20112;-76
2022/11/03 03:40:33;;;;;;;;;;;4.90;99.90;;;;;;1966673;72;20152;-74
2022/11/03 03:43:00;;;;;;;;;;;4.90;99.90;;;;;;1963433;72;20129;-74
2022/11/03 03:45:28;;;;;;;;;;;4.90;99.90;;;;;;1958248;72;20122;-74
2022/11/03 03:47:54;;;;;;;;;;;4.90;99.90;;;;;;1958168;72;20340;-74
2022/11/03 03:50:21;;;;;;;;;;;4.90;99.90;;;;;;1957220;72;20106;-74
2022/11/03 03:52:48;;;;;;;;;;;4.90;99.90;;;;;;1964800;72;20120;-75
2022/11/03 03:55:18;;;;;;;;;;;4.90;99.90;;;;;;1968421;72;20196;-75
2022/11/03 03:57:44;;;;;;;;;;;4.90;99.90;;;;;;1952353;72;20157;-74
2022/11/03 04:00:14;;;;;;;;;;;4.80;99.90;;;;;;1954048;72;20151;-75
2022/11/03 04:02:41;;;;;;;;;;;4.80;99.90;;;;;;1958256;72;20122;-75
2022/11/03 04:05:08;;;;;;;;;;;4.80;99.90;;;;;;1964102;72;20169;-75
2022/11/03 04:07:46;;;;;;;;;;;4.80;99.90;;;;;;1939355;73;20105;-74
2022/11/03 04:10:14;;;;;;;;;;;4.80;99.90;;;;;;1952371;72;20151;-74
2022/11/03 04:23:39;;;;;;;;;;;4.70;99.90;;;;;;1959970;72;20202;-74
2022/11/03 04:26:08;;;;;;;;;;;4.70;99.90;;;;;;1945933;72;20159;-75
2022/11/03 04:28:34;;;;;;;;;;;4.70;99.90;;;;;;1945761;72;20145;-75
2022/11/03 04:31:01;;;;;;;;;;;4.70;99.90;;;;;;1951873;72;20339;-76
2022/11/03 04:33:28;;;;;;;;;;;4.70;99.90;;;;;;1960600;72;20244;-74
2022/11/03 04:35:55;;;;;;;;;;;4.70;99.90;;;;;;1960908;72;20124;-74
2022/11/03 04:38:22;;;;;;;;;;;4.70;99.90;;;;;;1966374;73;20095;-74
2022/11/03 04:40:51;;;;;;;;;;;4.60;99.90;;;;;;1974890;73;20122;-74
2022/11/03 04:43:18;;;;;;;;;;;4.60;99.90;;;;;;1973639;72;20306;-74
2022/11/03 04:45:45;;;;;;;;;;;4.60;99.90;;;;;;1974762;73;20148;-74
2022/11/03 04:48:15;;;;;;;;;;;4.60;99.90;;;;;;1974816;73;20206;-75
2022/11/03 04:50:42;;;;;;;;;;;4.70;99.90;;;;;;1974851;73;20098;-74
2022/11/03 04:53:10;;;;;;;;;;;4.60;99.90;;;;;;1974932;73;20114;-74
2022/11/03 04:55:36;;;;;;;;;;;4.70;99.90;;;;;;1974924;73;20188;-77
2022/11/03 04:58:05;;;;;;;;;;;4.70;99.90;;;;;;1946978;72;20110;-75
2022/11/03 05:00:31;;;;;;;;;;;4.60;99.90;;;;;;1974634;73;20114;-74
2022/11/03 05:02:58;;;;;;;;;;;4.60;99.90;;;;;;1965763;72;20110;-74
2022/11/03 05:05:25;;;;;;;;;;;4.60;99.90;;;;;;1965583;73;20142;-74
2022/11/03 05:07:54;;;;;;;;;;;4.60;99.90;;;;;;1965378;73;20345;-75
2022/11/03 05:10:21;;;;;;;;;;;4.60;99.90;;;;;;1961496;72;20146;-74
2022/11/03 05:12:48;;;;;;;;;;;4.60;99.90;;;;;;1968926;72;20122;-74
2022/11/03 05:15:29;;;;;;;;;;;4.50;99.90;;;;;;1965206;72;20370;-73
2022/11/03 05:17:55;;;;;;;;;;;4.50;99.90;;;;;;1959726;72;20194;-75
2022/11/03 05:20:27;;;;;;;;;;;4.50;99.90;;;;;;1959877;72;20362;-75
2022/11/03 05:22:53;;;;;;;;;;;4.50;99.90;;;;;;1957756;72;20120;-75
2022/11/03 05:25:34;;;;;;;;;;;4.50;99.90;;;;;;1968794;72;20161;-74
2022/11/03 05:28:01;;;;;;;;;;;4.50;99.90;;;;;;1963908;72;20200;-75
2022/11/03 05:30:28;;;;;;;;;;;4.50;99.90;;;;;;1949990;72;20187;-75
2022/11/03 05:32:55;;;;;;;;;;;4.40;99.90;;;;;;1967223;72;20106;-75
2022/11/03 05:35:22;;;;;;;;;;;4.40;99.90;;;;;;1965698;72;20111;-74
2022/11/03 05:37:48;;;;;;;;;;;4.50;99.90;;;;;;1962280;72;20170;-75
2022/11/03 05:40:25;;;;;;;;;;;4.40;99.90;;;;;;1957556;73;20217;-75
2022/11/03 05:42:53;;;;;;;;;;;4.40;99.90;;;;;;1967118;72;20217;-74
2022/11/03 05:45:26;;;;;;;;;;;4.40;99.90;;;;;;1957982;73;20359;-76
2022/11/03 05:47:53;;;;;;;;;;;4.30;99.90;;;;;;1955397;72;20164;-75
2022/11/03 05:50:21;;;;;;;;;;;4.30;99.90;;;;;;1970904;72;20125;-75
2022/11/03 05:52:48;;;;;;;;;;;4.40;99.90;;;;;;1974767;73;20134;-75
2022/11/03 05:55:17;;;;;;;;;;;4.40;99.90;;;;;;1975846;73;20106;-75
2022/11/03 05:57:43;;;;;;;;;;;4.40;99.90;;;;;;1958017;73;20114;-76
2022/11/03 06:00:12;;;;;;;;;;;4.30;99.90;;;;;;1965224;72;20118;-75
2022/11/03 06:02:39;;;;;;;;;;;4.20;99.90;;;;;;1967627;72;20117;-74
2022/11/03 06:05:15;;;;;;;;;;;4.20;99.90;;;;;;1958484;72;20358;-74
2022/11/03 06:07:42;;;;;;;;;;;4.20;99.90;;;;;;1970387;72;20141;-75
2022/11/03 06:10:22;;;;;;;;;;;4.20;99.90;;;;;;1962956;72;20170;-75
2022/11/03 06:12:49;;;;;;;;;;;4.30;99.90;;;;;;1960505;72;20169;-74
2022/11/03 06:15:23;;;;;;;;;;;4.30;99.90;;;;;;1947473;72;20344;-75
2022/11/03 06:17:50;;;;;;;;;;;4.40;99.90;;;;;;1957993;72;20334;-74
2022/11/03 06:20:17;;;;;;;;;;;4.50;99.90;;;;;;1962602;72;20393;-74
2022/11/03 06:22:44;;;;;;;;;;;4.40;99.90;;;;;;1951419;72;20326;-74
2022/11/03 06:25:15;;;;;;;;;;;4.30;99.90;;;;;;1964269;73;20161;-75
2022/11/03 06:27:42;;;;;;;;;;;4.20;99.90;;;;;;1961258;72;20155;-75
2022/11/03 06:30:16;;;;;;;;;;;4.20;99.90;;;;;;1962083;72;20132;-74
2022/11/03 06:32:43;;;;;;;;;;;4.30;99.90;;;;;;1958650;72;20174;-74
2022/11/03 06:35:10;;;;;;;;;;;4.20;99.90;;;;;;1956072;72;20117;-74
2022/11/03 06:37:36;;;;;;;;;;;4.30;99.90;;;;;;1953000;72;20192;-74
2022/11/03 06:40:23;;;;;;;;;;;4.30;99.90;;;;;;1965249;72;20387;-74
2022/11/03 06:42:51;;;;;;;;;;;4.20;99.90;;;;;;1856404;75;20124;-74
2022/11/03 06:45:20;;;;;;;;;;;4.20;99.90;;;;;;1857806;77;20161;-74
2022/11/03 06:47:46;;;;;;;;;;;4.20;99.90;;;;;;1861061;75;20124;-75
2022/11/03 06:50:24;;;;;;;;;;;4.30;99.90;;;;;;1862452;75;20127;-75
2022/11/03 06:52:52;;;;;;;;;;;4.30;99.90;;;;;;1857469;76;20119;-75
2022/11/03 06:55:23;;;;;;;;;;;4.30;99.90;;;;;;1848892;77;20441;-75
2022/11/03 06:57:51;;;;;;;;;;;4.30;99.90;;;;;;1847962;78;20346;-75
2022/11/03 07:00:21;;;;;;;;;;;4.40;99.90;;;;;;1848021;78;20162;-75
2022/11/03 07:02:59;;;;;;;;;;;4.40;99.90;;;;;;1847963;77;20181;-74
2022/11/03 07:05:28;;;;;;;;;;;4.30;99.90;;;;;;1847882;77;20119;-75
2022/11/03 07:07:57;;;;;;;;;;;4.30;99.90;;;;;;1848034;75;20349;-75
2022/11/03 07:10:24;;;;;;;;;;;4.30;99.90;;;;;;1847936;77;20212;-75
2022/11/03 07:12:51;;;;;;;;;;;4.30;99.90;;;;;;1848001;77;20342;-74
2022/11/03 07:15:20;;;;;;;;;;;4.50;99.90;;;;;;1853946;76;20220;-74
2022/11/03 07:17:47;;;;;;;;;;;4.50;99.90;;;;;;1847059;78;20176;-74
2022/11/03 07:20:14;;;;;;;;;;;4.60;99.90;;;;;;1847911;77;20208;-74
2022/11/03 07:22:41;;;;;;;;;;;4.60;99.90;;;;;;1847908;78;20154;-75
2022/11/03 07:25:09;;;;;;;;;;;4.60;99.90;;;;;;1847911;78;20173;-74
2022/11/03 07:27:36;;;;;;;;;;;4.50;99.90;;;;;;1847927;78;20351;-74
2022/11/03 07:30:07;;;;;;;;;;;4.60;99.90;;;;;;1847940;78;20180;-74
2022/11/03 07:32:34;;;;;;;;;;;4.40;99.90;;;;;;1845276;77;20126;-75
2022/11/03 07:35:02;;;;;;;;;;;4.40;99.90;;;;;;1847936;78;20119;-75
2022/11/03 07:37:33;;;;;;;;;;;4.40;99.90;;;;;;1848028;78;20174;-75
2022/11/03 07:39:57;;;;;;;;;;;4.30;99.90;;;;;;1847670;75;20126;-76
2022/11/03 07:42:24;;;;;;;;;;;4.40;99.90;;;;;;1848441;77;20396;-74
2022/11/03 07:44:51;;;;;;;;;;;4.50;99.90;;;;;;1848724;78;20377;-75
2022/11/03 07:47:21;;;;;;;;;;;4.70;99.90;;;;;;1848060;78;20118;-76
2022/11/03 07:49:48;;;;;;;;;;;4.70;99.90;;;;;;1855973;75;20181;-76
2022/11/03 07:52:16;;;;;;;;;;;4.80;99.90;;;;;;1856627;77;20145;-75
2022/11/03 07:54:42;;;;;;;;;;;4.80;99.90;;;;;;1857006;77;20122;-76
2022/11/03 07:57:17;;;;;;;;;;;5.00;99.90;;;;;;1856954;77;20180;-74
2022/11/03 07:59:44;;;;;;;;;;;4.80;99.90;;;;;;1856615;76;20168;-74
2022/11/03 08:02:13;;;;;;;;;;;5.10;99.90;;;;;;1856485;76;20102;-75
2022/11/03 08:04:39;;;;;;;;;;;5.30;99.90;;;;;;1856887;76;20133;-74
2022/11/03 08:07:06;;;;;;;;;;;5.50;99.90;;;;;;1856581;77;20121;-74
2022/11/03 08:09:33;;;;;;;;;;;5.50;99.90;;;;;;1856606;77;20130;-74
2022/11/03 08:12:00;;;;;;;;;;;5.60;99.90;;;;;;1856928;77;20160;-74
2022/11/03 08:14:26;;;;;;;;;;;5.80;99.90;;;;;;1856633;77;20103;-74
2022/11/03 08:16:53;;;;;;;;;;;6.00;99.90;;;;;;1856816;76;20115;-74
2022/11/03 08:19:20;;;;;;;;;;;5.90;99.90;;;;;;1856839;77;20107;-74
2022/11/03 08:21:47;;;;;;;;;;;5.90;99.90;;;;;;1856846;77;20125;-74
2022/11/03 08:24:13;;;;;;;;;;;5.90;99.90;;;;;;1856748;77;20110;-73
2022/11/03 08:26:40;;;;;;;;;;;6.20;99.90;;;;;;1856676;77;20118;-73
2022/11/03 08:29:07;;;;;;;;;;;6.30;99.90;;;;;;1856564;77;20126;-74
2022/11/03 08:31:33;;;;;;;;;;;6.50;99.90;;;;;;1856793;77;20122;-74
2022/11/03 08:34:00;;;;;;;;;;;6.80;99.90;;;;;;1856553;77;20115;-74
2022/11/03 08:36:27;;;;;;;;;;;7.00;99.90;;;;;;1856661;77;20149;-73
2022/11/03 08:38:53;;;;;;;;;;;7.20;99.90;;;;;;1856435;76;20365;-74
2022/11/03 08:41:20;;;;;;;;;;;7.20;99.90;;;;;;1856578;77;20155;-75
2022/11/03 08:43:47;;;;;;;;;;;7.50;99.90;;;;;;1856695;77;20168;-74
2022/11/03 08:46:13;;;;;;;;;;;7.60;99.90;;;;;;1856447;77;20145;-74
2022/11/03 08:48:40;;;;;;;;;;;7.50;99.90;;;;;;1856673;77;20314;-73
2022/11/03 08:51:12;;;;;;;;;;;7.70;99.90;;;;;;1856517;77;20153;-73
2022/11/03 08:53:38;;;;;;;;;;;7.50;99.90;;;;;;1856978;75;20223;-74
2022/11/03 08:56:05;;;;;;;;;;;7.60;99.90;;;;;;1856748;77;20118;-73
2022/11/03 08:58:32;;;;;;;;;;;7.70;99.90;;;;;;1848377;77;20358;-73
2022/11/03 09:00:58;;;;;;;;;;;7.90;99.90;;;;;;1855167;74;20211;-73
2022/11/03 09:03:25;;;;;;;;;;;8.30;99.90;;;;;;1856795;77;20337;-73
2022/11/03 09:05:52;;;;;;;;;;;8.30;99.90;;;;;;1857131;76;20166;-73
2022/11/03 09:08:18;;;;;;;;;;;8.30;99.90;;;;;;1859219;77;20189;-75
2022/11/03 09:10:45;;;;;;;;;;;8.30;99.90;;;;;;1858619;77;20183;-74
2022/11/03 09:13:12;;;;;;;;;;;8.40;99.90;;;;;;1856535;77;20389;-74
2022/11/03 09:15:38;;;;;;;;;;;8.50;99.90;;;;;;1856900;77;20165;-74
2022/11/03 09:18:05;;;;;;;;;;;8.80;99.90;;;;;;1856518;77;20346;-73
2022/11/03 09:20:32;;;;;;;;;;;8.90;99.90;;;;;;1856406;77;20114;-73
2022/11/03 09:22:59;;;;;;;;;;;9.00;99.90;;;;;;1856436;77;20170;-75
2022/11/03 09:25:25;;;;;;;;;;;9.20;99.90;;;;;;1859714;77;20319;-75
2022/11/03 09:27:52;;;;;;;;;;;9.40;99.90;;;;;;1859845;76;20156;-74
2022/11/03 09:30:19;;;;;;;;;;;9.60;99.90;;;;;;1859767;77;20385;-75
2022/11/03 09:32:51;;;;;;;;;;;9.90;99.90;;;;;;1859815;77;20337;-73
2022/11/03 09:35:15;;;;;;;;;;;9.90;99.90;;;;;;1867561;75;20121;-74
2022/11/03 09:37:42;;;;;;;;;;;10.00;99.90;;;;;;1856445;77;20126;-74
2022/11/03 09:40:09;;;;;;;;;;;10.00;99.90;;;;;;1856389;77;20166;-73
2022/11/03 09:42:36;;;;;;;;;;;10.30;99.90;;;;;;1856544;77;20130;-74
2022/11/03 09:45:03;;;;;;;;;;;10.60;99.90;;;;;;1856723;77;20125;-73
2022/11/03 09:47:34;;;;;;;;;;;10.80;99.90;;;;;;1856553;77;20103;-74
2022/11/03 09:50:01;;;;;;;;;;;10.90;99.90;;;;;;1856455;77;20149;-74
2022/11/03 09:52:28;;;;;;;;;;;10.90;99.90;;;;;;1856749;77;20160;-72
2022/11/03 09:54:54;;;;;;;;;;;10.90;99.90;;;;;;1856474;75;20141;-73
2022/11/03 09:57:23;;;;;;;;;;;10.90;99.90;;;;;;1856374;77;20151;-74
2022/11/03 09:59:50;;;;;;;;;;;11.00;99.90;;;;;;1855803;77;20126;-73
2022/11/03 10:02:21;;;;;;;;;;;11.20;99.90;;;;;;1856441;77;20338;-73
2022/11/03 10:04:48;;;;;;;;;;;11.10;99.90;;;;;;1856500;77;20220;-74
2022/11/03 10:07:15;;;;;;;;;;;11.10;99.90;;;;;;1856299;77;20106;-74
2022/11/03 10:09:44;;;;;;;;;;;10.80;99.90;;;;;;1856523;77;20111;-74
2022/11/03 10:12:10;;;;;;;;;;;10.70;99.90;;;;;;1856328;75;20112;-74
2022/11/03 10:14:37;;;;;;;;;;;10.70;99.90;;;;;;1856492;77;20175;-74
2022/11/03 10:17:05;;;;;;;;;;;10.80;99.90;;;;;;1856303;77;20122;-74
2022/11/03 10:19:32;;;;;;;;;;;10.90;99.90;;;;;;1856436;77;20107;-75
2022/11/03 10:21:58;;;;;;;;;;;10.90;99.90;;;;;;1856482;77;20157;-72
2022/11/03 10:24:25;;;;;;;;;;;11.00;99.90;;;;;;1856847;77;20146;-73
2022/11/03 10:26:53;;;;;;;;;;;11.00;99.90;;;;;;1856254;77;20168;-73
2022/11/03 10:29:22;;;;;;;;;;;11.00;99.90;;;;;;1856568;77;20196;-73
2022/11/03 10:31:50;;;;;;;;;;;11.10;99.90;;;;;;1856943;77;20384;-74
2022/11/03 10:34:27;;;;;;;;;;;11.10;99.90;;;;;;1856235;77;20111;-73
2022/11/03 10:37:16;;;;;;;;;;;11.10;99.90;;;;;;1856611;77;20118;-73
2022/11/03 10:39:42;;;;;;;;;;;11.00;99.90;;;;;;1819419;77;20182;-73
2022/11/03 10:42:11;;;;;;;;;;;10.90;99.90;;;;;;1819327;79;20191;-73
2022/11/03 10:44:37;;;;;;;;;;;10.90;99.90;;;;;;1832994;76;20334;-74
2022/11/03 10:47:05;;;;;;;;;;;11.00;99.90;;;;;;1856411;76;20122;-72
2022/11/03 10:49:34;;;;;;;;;;;11.00;99.90;;;;;;1856564;77;20118;-72
2022/11/03 10:52:11;;;;;;;;;;;11.10;99.90;;;;;;1856250;77;20111;-72
2022/11/03 10:54:38;;;;;;;;;;;11.10;99.90;;;;;;1843940;77;20126;-74
2022/11/03 10:57:05;;;;;;;;;;;11.20;99.90;;;;;;1856555;77;20119;-75
2022/11/03 10:59:32;;;;;;;;;;;11.40;99.90;;;;;;1859855;77;20157;-73
2022/11/03 11:01:59;;;;;;;;;;;11.60;99.90;;;;;;1859725;77;20289;-73
2022/11/03 11:04:26;;;;;;;;;;;11.60;99.90;;;;;;1859756;77;20126;-74
2022/11/03 11:06:53;;;;;;;;;;;11.60;99.90;;;;;;1859743;76;20118;-74
2022/11/03 11:09:21;;;;;;;;;;;11.80;99.90;;;;;;1852617;74;20435;-73
2022/11/03 11:12:04;;;;;;;;;;;11.70;99.90;;;;;;1857418;74;20130;-73
2022/11/03 11:14:35;;;;;;;;;;;11.80;99.90;;;;;;1868891;77;20120;-74
2022/11/03 11:17:01;;;;;;;;;;;11.80;99.90;;;;;;1856981;75;20164;-73
2022/11/03 11:19:28;;;;;;;;;;;11.70;99.90;;;;;;1856427;75;20134;-73
2022/11/03 11:21:56;;;;;;;;;;;11.70;99.90;;;;;;1856840;77;20365;-73
2022/11/03 11:24:41;;;;;;;;;;;12.00;99.90;;;;;;1856393;77;20223;-72
2022/11/03 11:27:30;;;;;;;;;;;11.80;99.90;;;;;;1856738;77;20161;-74
2022/11/03 11:29:55;;;;;;;;;;;11.70;99.90;;;;;;1856404;76;20143;-73
2022/11/03 11:32:23;;;;;;;;;;;11.70;99.90;;;;;;1856441;77;20330;-73
2022/11/03 11:34:50;;;;;;;;;;;11.80;99.90;;;;;;1845842;77;20200;-73
2022/11/03 11:37:21;;;;;;;;;;;11.90;99.90;;;;;;1856655;77;20325;-75
2022/11/03 11:39:48;;;;;;;;;;;11.90;99.90;;;;;;1856546;77;20122;-72
2022/11/03 11:42:19;;;;;;;;;;;11.90;99.90;;;;;;1856682;77;20412;-74
2022/11/03 11:44:45;;;;;;;;;;;12.00;99.90;;;;;;1856602;76;20118;-73
2022/11/03 11:47:31;;;;;;;;;;;11.90;99.90;;;;;;1856547;77;20119;-74
2022/11/03 11:50:13;;;;;;;;;;;12.00;99.90;;;;;;1856717;77;20387;-73
2022/11/03 11:52:56;;;;;;;;;;;11.80;99.90;;;;;;1855499;77;20122;-73
2022/11/03 11:55:33;;;;;;;;;;;11.90;99.90;;;;;;1856635;77;20122;-73
2022/11/03 11:58:00;;;;;;;;;;;11.80;99.90;;;;;;1856853;76;20389;-73
2022/11/03 12:00:29;;;;;;;;;;;12.00;99.90;;;;;;1856979;77;20160;-74
2022/11/03 12:02:55;;;;;;;;;;;12.00;99.90;;;;;;1856651;75;20203;-74
2022/11/03 12:05:25;;;;;;;;;;;12.00;99.90;;;;;;1856494;77;20111;-74
2022/11/03 12:07:51;;;;;;;;;;;11.90;99.90;;;;;;1856020;74;20195;-74
2022/11/03 12:10:21;;;;;;;;;;;11.90;99.90;;;;;;1838204;75;20127;-73
2022/11/03 12:12:48;;;;;;;;;;;12.00;99.90;;;;;;1833208;78;20108;-73
2022/11/03 12:15:33;;;;;;;;;;;12.20;99.90;;;;;;1835088;77;20131;-74
2022/11/03 12:18:00;;;;;;;;;;;12.30;99.90;;;;;;1852940;74;20265;-72
2022/11/03 12:20:35;;;;;;;;;;;12.30;99.90;;;;;;1856470;74;20157;-72
2022/11/03 12:23:02;;;;;;;;;;;12.30;99.90;;;;;;1861870;77;20173;-73
2022/11/03 12:25:30;;;;;;;;;;;12.50;99.90;;;;;;1857562;77;20249;-72
2022/11/03 12:27:57;;;;;;;;;;;12.70;99.90;;;;;;1859699;77;20123;-72
2022/11/03 12:30:24;;;;;;;;;;;12.90;99.90;;;;;;1859714;77;20123;-73
2022/11/03 12:32:52;;;;;;;;;;;12.60;99.90;;;;;;1856535;77;20141;-72
2022/11/03 12:35:19;;;;;;;;;;;12.40;99.90;;;;;;1856611;77;20106;-74
2022/11/03 12:37:46;;;;;;;;;;;12.40;99.90;;;;;;1856269;77;20176;-74
2022/11/03 12:40:13;;;;;;;;;;;12.60;99.90;;;;;;1856550;77;20164;-73
2022/11/03 12:42:40;;;;;;;;;;;12.80;99.90;;;;;;1856426;77;20166;-74
2022/11/03 12:45:07;;;;;;;;;;;12.90;99.90;;;;;;1856407;77;20222;-73
2022/11/03 12:47:34;;;;;;;;;;;13.00;99.90;;;;;;1859795;77;20107;-72
2022/11/03 12:50:01;;;;;;;;;;;13.00;99.90;;;;;;1859914;76;20149;-74
2022/11/03 12:52:27;;;;;;;;;;;13.10;99.90;;;;;;1856296;75;20338;-74
2022/11/03 12:54:54;;;;;;;;;;;13.10;99.90;;;;;;1866147;77;20122;-73
2022/11/03 12:57:21;;;;;;;;;;;13.00;99.90;;;;;;1857016;77;20428;-75
2022/11/03 12:59:47;;;;;;;;;;;12.90;99.90;;;;;;1856899;77;20168;-75
2022/11/03 13:02:14;;;;;;;;;;;12.70;99.90;;;;;;1856600;77;20150;-75
2022/11/03 13:04:41;;;;;;;;;;;12.80;99.90;;;;;;1856661;77;20161;-75
2022/11/03 13:07:08;;;;;;;;;;;12.90;99.90;;;;;;1856741;77;20314;-75
2022/11/03 13:09:34;;;;;;;;;;;12.80;99.90;;;;;;1856486;77;20141;-75
2022/11/03 13:14:46;;;;;;;;;;;12.90;99.90;;;;;;1856818;77;20207;-74
2022/11/03 13:17:13;;;;;;;;;;;13.00;99.90;;;;;;1856669;77;20118;-74
2022/11/03 13:19:39;;;;;;;;;;;13.00;99.90;;;;;;1856601;77;20238;-73
2022/11/03 13:22:06;;;;;;;;;;;13.10;99.90;;;;;;1856743;77;20175;-73
2022/11/03 13:24:34;;;;;;;;;;;13.20;99.90;;;;;;1856636;75;20152;-73
2022/11/03 13:27:01;;;;;;;;;;;13.10;99.90;;;;;;1856834;77;20107;-74
2022/11/03 13:29:28;;;;;;;;;;;13.00;99.90;;;;;;1857396;77;20152;-72
2022/11/03 13:31:55;;;;;;;;;;;13.00;99.90;;;;;;1857356;75;20146;-73
2022/11/03 13:34:25;;;;;;;;;;;13.00;99.90;;;;;;1857584;77;20345;-72
2022/11/03 13:36:52;;;;;;;;;;;13.10;99.90;;;;;;1857561;77;20110;-72
2022/11/03 13:39:19;;;;;;;;;;;13.00;99.90;;;;;;1857683;77;20111;-72
2022/11/03 13:41:48;;;;;;;;;;;12.90;99.90;;;;;;1857542;75;20122;-73
2022/11/03 13:44:15;;;;;;;;;;;13.10;99.90;;;;;;1857556;77;20118;-75
2022/11/03 13:46:41;;;;;;;;;;;12.90;99.90;;;;;;1857885;77;20176;-75
2022/11/03 13:49:10;;;;;;;;;;;13.00;99.90;;;;;;1857281;77;20149;-73
2022/11/03 13:51:36;;;;;;;;;;;13.10;99.90;;;;;;1857297;77;20142;-73
2022/11/03 13:54:04;;;;;;;;;;;13.10;99.90;;;;;;1857392;77;20123;-73
2022/11/03 13:56:32;;;;;;;;;;;13.00;99.90;;;;;;1857457;77;20153;-72
2022/11/03 13:58:59;;;;;;;;;;;13.00;99.90;;;;;;1853671;75;20270;-74
2022/11/03 14:01:25;;;;;;;;;;;12.90;99.90;;;;;;1861613;76;20149;-74
2022/11/03 14:03:54;;;;;;;;;;;12.90;99.90;;;;;;1857289;77;20111;-72
2022/11/03 14:06:21;;;;;;;;;;;13.00;99.90;;;;;;1857523;77;20164;-74
2022/11/03 14:08:47;;;;;;;;;;;12.90;99.90;;;;;;1857063;77;20153;-74
2022/11/03 14:13:59;;;;;;;;;;;12.90;99.90;;;;;;1857368;77;20157;-73
2022/11/03 14:16:26;;;;;;;;;;;12.80;99.90;;;;;;1857055;77;20126;-73
2022/11/03 14:18:54;;;;;;;;;;;12.80;99.90;;;;;;1857407;77;20110;-73
2022/11/03 14:21:20;;;;;;;;;;;12.70;99.90;;;;;;1857429;77;20107;-74
2022/11/03 14:23:49;;;;;;;;;;;12.70;99.90;;;;;;1857286;77;20107;-74
2022/11/03 14:26:18;;;;;;;;;;;12.60;99.90;;;;;;1854387;75;20153;-74
2022/11/03 14:28:44;;;;;;;;;;;12.70;99.90;;;;;;1868961;75;20155;-73
2022/11/03 14:31:22;;;;;;;;;;;12.60;99.90;;;;;;1858572;77;20116;-74
2022/11/03 14:33:49;;;;;;;;;;;12.60;99.90;;;;;;1857386;77;20149;-74
2022/11/03 14:36:16;;;;;;;;;;;12.60;99.90;;;;;;1848424;77;20334;-72
2022/11/03 14:38:42;;;;;;;;;;;12.60;99.90;;;;;;1848067;78;20183;-73
2022/11/03 14:43:54;;;;;;;;;;;12.50;99.90;;;;;;1848927;78;20123;-72
2022/11/03 14:46:21;;;;;;;;;;;12.50;99.90;;;;;;1849006;78;20311;-73
2022/11/03 14:48:49;;;;;;;;;;;12.50;99.90;;;;;;1848965;78;20143;-72
2022/11/03 14:51:16;;;;;;;;;;;12.50;99.90;;;;;;1848910;76;20175;-73
2022/11/03 14:53:44;;;;;;;;;;;12.40;99.90;;;;;;1848761;76;20153;-74
2022/11/03 14:56:15;;;;;;;;;;;12.40;99.90;;;;;;1848434;78;20180;-73
2022/11/03 14:58:43;;;;;;;;;;;12.30;99.90;;;;;;1848710;76;20138;-72